createdAt,value
2023-03-04T00:01:03.364Z,0
2023-03-04T00:06:03.401Z,0
2023-03-04T00:11:03.371Z,0
2023-03-04T00:16:03.466Z,0
2023-03-04T00:21:03.404Z,0
2023-03-04T00:26:03.445Z,0
2023-03-04T00:31:03.478Z,0
2023-03-04T00:36:03.480Z,0
2023-03-04T00:41:03.506Z,0
2023-03-04T00:46:03.563Z,0
2023-03-04T00:51:03.539Z,0
2023-03-04T00:56:03.603Z,0
2023-03-04T01:01:03.592Z,0
2023-03-04T01:06:03.597Z,0
2023-03-04T01:11:03.613Z,0
2023-03-04T01:16:03.639Z,0
2023-03-04T01:21:03.648Z,0
2023-03-04T01:26:03.666Z,0
2023-03-04T01:31:03.752Z,0
2023-03-04T01:36:03.758Z,0
2023-03-04T01:41:03.700Z,0
2023-03-04T01:46:03.831Z,0
2023-03-04T01:51:03.764Z,0
2023-03-04T01:56:03.815Z,0
2023-03-04T02:01:03.820Z,0
2023-03-04T02:06:03.863Z,0
2023-03-04T02:11:03.866Z,0
2023-03-04T02:16:03.922Z,0
2023-03-04T02:21:03.864Z,0
2023-03-04T02:26:03.890Z,0
2023-03-04T02:31:04.014Z,0
2023-03-04T02:36:03.993Z,0
2023-03-04T02:41:03.982Z,0
2023-03-04T02:46:03.996Z,0
2023-03-04T02:51:04.012Z,0
2023-03-04T02:56:04.025Z,0
2023-03-04T03:01:04.026Z,0
2023-03-04T03:06:04.059Z,0
2023-03-04T03:11:04.109Z,0
2023-03-04T03:16:04.150Z,0
2023-03-04T03:21:04.097Z,0
2023-03-04T03:26:04.144Z,0
2023-03-04T03:31:04.159Z,0
2023-03-04T03:36:04.314Z,0
2023-03-04T03:41:04.176Z,0
2023-03-04T03:46:04.268Z,0
2023-03-04T03:51:04.240Z,0
2023-03-04T03:56:04.619Z,0
2023-03-04T04:01:04.550Z,0
2023-03-04T04:06:04.532Z,0
2023-03-04T04:11:04.564Z,0
2023-03-04T04:16:04.677Z,0
2023-03-04T04:21:04.639Z,0
2023-03-04T04:26:04.637Z,0
2023-03-04T04:31:04.680Z,0
2023-03-04T04:36:04.695Z,0
2023-03-04T04:41:04.676Z,0
2023-03-04T04:46:04.756Z,0
2023-03-04T04:51:04.725Z,0
2023-03-04T04:56:04.756Z,0
2023-03-04T05:01:04.785Z,0
2023-03-04T05:06:04.790Z,0
2023-03-04T05:11:04.822Z,0
2023-03-04T05:16:04.912Z,0
2023-03-04T05:21:04.864Z,0
2023-03-04T05:26:04.857Z,0
2023-03-04T05:31:04.915Z,0
2023-03-04T05:36:04.925Z,0
2023-03-04T05:41:04.888Z,0
2023-03-04T05:46:05.070Z,0
2023-03-04T05:51:05.229Z,0
2023-03-04T05:56:05.250Z,0
2023-03-04T06:01:05.238Z,0
2023-03-04T06:06:05.253Z,0
2023-03-04T06:11:05.271Z,0
2023-03-04T06:16:05.459Z,2
2023-03-04T06:21:05.340Z,4
2023-03-04T06:26:16.501Z,11
2023-03-04T06:31:20.291Z,6
2023-03-04T06:36:20.199Z,16
2023-03-04T06:41:20.214Z,15
2023-03-04T06:46:20.211Z,14
2023-03-04T06:51:20.262Z,17
2023-03-04T06:56:20.252Z,13
2023-03-04T07:01:20.277Z,17
2023-03-04T07:06:20.323Z,19
2023-03-04T07:11:20.372Z,21
2023-03-04T07:16:20.419Z,20
2023-03-04T07:21:20.365Z,27
2023-03-04T07:26:20.383Z,26
2023-03-04T07:31:20.557Z,32
2023-03-04T07:36:20.442Z,41
2023-03-04T07:41:20.459Z,46
2023-03-04T07:46:20.449Z,47
2023-03-04T07:51:20.547Z,29
2023-03-04T07:56:20.502Z,29
2023-03-04T08:01:20.542Z,37
2023-03-04T08:06:20.565Z,51
2023-03-04T08:11:21.941Z,54
2023-03-04T08:16:21.928Z,75
2023-03-04T08:21:21.995Z,66
2023-03-04T08:26:22.017Z,56
2023-03-04T08:31:22.107Z,49
2023-03-04T08:36:22.040Z,53
2023-03-04T08:41:22.051Z,56
2023-03-04T08:46:22.123Z,49
2023-03-04T08:51:22.128Z,37
2023-03-04T08:56:22.124Z,34
2023-03-04T09:01:22.156Z,38
2023-03-04T09:06:22.153Z,81
2023-03-04T09:11:22.208Z,70
2023-03-04T09:16:22.278Z,64
2023-03-04T09:21:22.199Z,70
2023-03-04T09:26:22.272Z,67
2023-03-04T09:31:22.320Z,69
2023-03-04T09:36:22.324Z,67
2023-03-04T09:41:22.302Z,85
2023-03-04T09:46:22.345Z,108
2023-03-04T09:51:22.355Z,130
2023-03-04T09:56:22.334Z,109
2023-03-04T10:01:22.369Z,76
2023-03-04T10:06:22.389Z,38
2023-03-04T10:11:22.411Z,47
2023-03-04T10:16:22.515Z,115
2023-03-04T10:21:22.450Z,183
2023-03-04T10:26:22.466Z,303
2023-03-04T10:31:22.550Z,322
2023-03-04T10:36:22.488Z,199
2023-03-04T10:41:22.545Z,150
2023-03-04T10:46:25.226Z,142
2023-03-04T10:51:22.849Z,129
2023-03-04T10:56:22.857Z,107
2023-03-04T11:01:22.872Z,138
2023-03-04T11:06:22.914Z,185
2023-03-04T11:11:22.919Z,294
2023-03-04T11:16:22.953Z,430
2023-03-04T11:21:22.923Z,357
2023-03-04T11:26:22.954Z,346
2023-03-04T11:31:23.129Z,331
2023-03-04T11:36:22.972Z,297
2023-03-04T11:41:22.998Z,197
2023-03-04T11:46:23.071Z,209
2023-03-04T11:51:23.091Z,165
2023-03-04T11:56:23.080Z,134
2023-03-04T12:01:23.264Z,138
2023-03-04T12:06:23.136Z,93
2023-03-04T12:11:23.161Z,147
2023-03-04T12:16:23.238Z,137
2023-03-04T12:21:23.196Z,118
2023-03-04T12:26:23.232Z,151
2023-03-04T12:31:23.718Z,369
2023-03-04T12:36:23.285Z,427
2023-03-04T12:41:23.326Z,417
2023-03-04T12:46:23.411Z,275
2023-03-04T12:51:23.358Z,121
2023-03-04T12:56:23.529Z,81
2023-03-04T13:01:26.995Z,89
2023-03-04T13:06:27.028Z,161
2023-03-04T13:11:27.044Z,339
2023-03-04T13:16:27.103Z,161
2023-03-04T13:21:27.066Z,128
2023-03-04T13:26:27.142Z,100
2023-03-04T13:31:27.244Z,95
2023-03-04T13:36:27.112Z,126
2023-03-04T13:41:27.147Z,135
2023-03-04T13:46:27.252Z,185
2023-03-04T13:51:29.896Z,193
2023-03-04T13:56:27.241Z,148
2023-03-04T14:01:27.231Z,138
2023-03-04T14:06:27.321Z,131
2023-03-04T14:11:27.271Z,140
2023-03-04T14:16:27.335Z,153
2023-03-04T14:21:27.308Z,139
2023-03-04T14:26:27.392Z,159
2023-03-04T14:31:27.338Z,153
2023-03-04T14:36:27.371Z,78
2023-03-04T14:41:27.407Z,37
2023-03-04T14:46:27.436Z,31
2023-03-04T14:51:27.426Z,83
2023-03-04T14:56:27.470Z,122
2023-03-04T15:01:27.524Z,97
2023-03-04T15:06:27.536Z,73
2023-03-04T15:11:27.773Z,40
2023-03-04T15:16:27.929Z,43
2023-03-04T15:21:27.850Z,29
2023-03-04T15:26:27.853Z,22
2023-03-04T15:31:27.846Z,19
2023-03-04T15:36:27.862Z,17
2023-03-04T15:41:27.925Z,9
2023-03-04T15:46:27.990Z,10
2023-03-04T15:51:27.951Z,16
2023-03-04T15:56:27.967Z,18
2023-03-04T16:01:28.033Z,20
2023-03-04T16:06:28.062Z,28
2023-03-04T16:11:28.039Z,27
2023-03-04T16:16:28.062Z,24
2023-03-04T16:21:28.055Z,27
2023-03-04T16:26:28.363Z,16
2023-03-04T16:31:28.435Z,7
2023-03-04T16:36:28.427Z,4
2023-03-04T16:41:28.377Z,2
2023-03-04T16:46:28.509Z,2
2023-03-04T16:51:28.428Z,2
2023-03-04T16:56:28.695Z,2
2023-03-04T17:01:28.940Z,1
2023-03-04T17:06:28.770Z,0
2023-03-04T17:11:28.786Z,0
2023-03-04T17:16:28.838Z,0
2023-03-04T17:21:28.808Z,0
2023-03-04T17:26:28.858Z,0
2023-03-04T17:31:28.894Z,0
2023-03-04T17:36:28.869Z,0
2023-03-04T17:41:28.876Z,0
2023-03-04T17:46:28.948Z,0
2023-03-04T17:51:28.954Z,0
2023-03-04T17:56:28.967Z,0
2023-03-04T18:01:28.957Z,0
2023-03-04T18:06:29.030Z,0
2023-03-04T18:11:29.012Z,0
2023-03-04T18:16:29.169Z,0
2023-03-04T18:21:30.204Z,0
2023-03-04T18:26:30.214Z,0
2023-03-04T18:31:31.786Z,0
2023-03-04T18:36:30.264Z,0
2023-03-04T18:41:30.291Z,0
2023-03-04T18:46:30.293Z,0
2023-03-04T18:51:30.293Z,0
2023-03-04T18:56:30.338Z,0
2023-03-04T19:01:30.336Z,0
2023-03-04T19:06:30.443Z,0
2023-03-04T19:11:30.410Z,0
2023-03-04T19:16:30.510Z,0
2023-03-04T19:21:30.703Z,0
2023-03-04T19:26:30.765Z,0
2023-03-04T19:31:30.737Z,0
2023-03-04T19:36:30.760Z,0
2023-03-04T19:41:30.796Z,0
2023-03-04T19:46:30.822Z,0
2023-03-04T19:51:30.810Z,0
2023-03-04T19:56:30.838Z,0
2023-03-04T20:01:30.904Z,0
2023-03-04T20:06:30.904Z,0
2023-03-04T20:11:30.867Z,0
2023-03-04T20:16:30.929Z,0
2023-03-04T20:21:30.904Z,0
2023-03-04T20:26:30.959Z,0
2023-03-04T20:31:30.967Z,0
2023-03-04T20:36:30.970Z,0
2023-03-04T20:41:30.993Z,0
2023-03-04T20:46:31.076Z,0
2023-03-04T20:51:31.054Z,0
2023-03-04T20:56:31.035Z,0
2023-03-04T21:01:31.180Z,0
2023-03-04T21:06:31.134Z,0
2023-03-04T21:11:31.098Z,0
2023-03-04T21:16:31.153Z,0
2023-03-04T21:21:31.169Z,0
2023-03-04T21:26:31.180Z,0
2023-03-04T21:31:31.320Z,0
2023-03-04T21:36:31.242Z,0
2023-03-04T21:41:31.254Z,0
2023-03-04T21:46:31.382Z,0
2023-03-04T21:51:31.308Z,0
2023-03-04T21:56:31.328Z,0
2023-03-04T22:01:31.357Z,0
2023-03-04T22:06:31.387Z,0
2023-03-04T22:11:31.418Z,0
2023-03-04T22:16:32.748Z,0
2023-03-04T22:21:31.446Z,0
2023-03-04T22:26:31.509Z,0
2023-03-04T22:31:31.532Z,0
2023-03-04T22:36:31.530Z,0
2023-03-04T22:41:31.529Z,0
2023-03-04T22:46:31.671Z,0
2023-03-04T22:51:31.582Z,0
2023-03-04T22:56:31.586Z,0
2023-03-04T23:01:31.656Z,0
2023-03-04T23:06:31.685Z,0
2023-03-04T23:11:31.632Z,0
2023-03-04T23:16:31.670Z,0
2023-03-04T23:21:31.686Z,0
2023-03-04T23:26:31.736Z,0
2023-03-04T23:31:31.732Z,0
2023-03-04T23:36:31.766Z,0
2023-03-04T23:41:31.787Z,0
2023-03-04T23:46:31.885Z,0
2023-03-04T23:51:31.844Z,0
2023-03-04T23:56:31.846Z,0
